EGPE/INV METAR and TAF weather

Enter ICAO airport designator
Station Type Date Time Source
EGPE METAR 2021/02/25 15:50 UTC NOAA

EGPE 251550Z 24016KT 9999 VCSH FEW015 SCT028 08/03 Q1020


Station Type Date Time Source
EGPE Decoded METAR 2021/02/25 15:50 UTC NOAA

Inverness / Dalcross, United Kingdom (EGPE) 57-32N 004-03W 0M
Feb 25, 2021 - 10:50 AM EST / 2021.02.25 1550 UTC
Wind: from the WSW (240 degrees) at 18 MPH (16 KT):0
Visibility: greater than 7 mile(s):0
Sky conditions: partly cloudy
Weather: showers in the vicinity
Temperature: 46 F (8 C)
Dew Point: 37 F (3 C)
Relative Humidity: 70%
Pressure (altimeter): 30.12 in. Hg (1020 hPa)
ob: EGPE 251550Z 24016KT 9999 VCSH FEW015 SCT028 08/03 Q1020
cycle: 16

Station Type Date Time Source
EGPE TAF UTC NOAA

Error!

Example: see airport list